Time;durP1;ratioP1;P1;durP2;ratioP2;P2;SDS_P1;SDS_P2;PMS_P1;PMS_P2;Temp;Humidity;BMP_temperature;BMP_pressure;BME280_temperature;BME280_humidity;BME280_pressure;Samples;Min_cycle;Max_cycle;Signal;HPM_P1;HPM_P2
2024/03/29 00:00:44;;;;;;;3.47;0.30;;;8.50;99.90;;;;;;5026742;28;20504;-78
2024/03/29 00:03:10;;;;;;;6.80;0.20;;;8.50;99.90;;;;;;5024132;28;20680;-78
2024/03/29 00:05:36;;;;;;;2.88;0.20;;;8.50;99.90;;;;;;5031268;28;20041;-78
2024/03/29 00:08:05;;;;;;;4.97;0.20;;;8.50;99.90;;;;;;5028666;28;20074;-78
2024/03/29 00:10:30;;;;;;;3.55;0.30;;;8.50;99.90;;;;;;5026066;28;20033;-78
2024/03/29 00:12:56;;;;;;;2.17;0.30;;;8.50;99.90;;;;;;5016891;28;20120;-78
2024/03/29 00:15:22;;;;;;;3.80;0.30;;;8.50;99.90;;;;;;5029371;28;20060;-78
2024/03/29 00:17:47;;;;;;;2.53;0.20;;;8.50;99.90;;;;;;5030146;28;20465;-78
2024/03/29 00:20:13;;;;;;;2.58;0.20;;;8.50;99.90;;;;;;5031108;28;20028;-78
2024/03/29 00:22:39;;;;;;;5.15;0.30;;;8.50;99.90;;;;;;5038429;28;20075;-79
2024/03/29 00:25:05;;;;;;;1.70;0.20;;;8.50;99.90;;;;;;5028079;28;20036;-79
2024/03/29 00:27:30;;;;;;;3.13;0.20;;;8.50;99.90;;;;;;5029902;28;20044;-79
2024/03/29 00:29:56;;;;;;;4.90;0.30;;;8.40;99.90;;;;;;5029516;28;20478;-79
2024/03/29 00:32:22;;;;;;;2.42;0.20;;;8.40;99.90;;;;;;5030710;28;20120;-79
2024/03/29 00:34:52;;;;;;;3.50;0.20;;;8.30;99.90;;;;;;5028271;28;20120;-79
2024/03/29 00:37:18;;;;;;;5.43;0.25;;;8.30;99.90;;;;;;5027005;28;20025;-78
2024/03/29 00:39:45;;;;;;;3.38;0.30;;;8.30;99.90;;;;;;5031692;28;20040;-79
2024/03/29 00:42:15;;;;;;;3.45;0.25;;;8.30;99.90;;;;;;5030029;28;20331;-79
2024/03/29 00:44:43;;;;;;;2.20;0.20;;;8.30;99.90;;;;;;5025604;28;20092;-78
2024/03/29 00:47:09;;;;;;;4.72;0.30;;;8.30;99.90;;;;;;5026488;28;20112;-79
2024/03/29 00:49:35;;;;;;;3.80;0.20;;;8.30;99.90;;;;;;5023098;28;20109;-78
2024/03/29 00:52:03;;;;;;;4.10;0.20;;;8.30;99.90;;;;;;5028073;28;20065;-79
2024/03/29 00:54:28;;;;;;;2.60;0.20;;;8.30;99.90;;;;;;5025440;28;20111;-79
2024/03/29 00:56:54;;;;;;;2.70;0.30;;;8.30;99.90;;;;;;5022613;28;20487;-79
2024/03/29 00:59:20;;;;;;;1.90;0.13;;;8.30;99.90;;;;;;5031882;28;20083;-80
2024/03/29 01:01:46;;;;;;;3.90;0.20;;;8.30;99.90;;;;;;5029047;28;20039;-80
2024/03/29 01:04:12;;;;;;;3.90;0.20;;;8.30;99.90;;;;;;5029188;28;20548;-78
2024/03/29 01:06:38;;;;;;;3.80;0.20;;;8.30;99.90;;;;;;5026947;28;20026;-77
2024/03/29 01:09:04;;;;;;;3.72;0.30;;;8.20;99.90;;;;;;5021146;28;20080;-77
2024/03/29 01:11:30;;;;;;;2.33;0.15;;;8.20;99.90;;;;;;5029881;28;20025;-77
2024/03/29 01:13:56;;;;;;;4.60;0.50;;;8.20;99.90;;;;;;5029154;28;20647;-78
2024/03/29 01:16:22;;;;;;;3.50;0.20;;;8.20;99.90;;;;;;5028808;28;20033;-78
2024/03/29 01:18:48;;;;;;;1.65;0.30;;;8.20;99.90;;;;;;5020060;28;20040;-77
2024/03/29 01:21:13;;;;;;;3.25;0.40;;;8.20;99.90;;;;;;5030962;28;20064;-77
2024/03/29 01:23:39;;;;;;;3.50;0.20;;;8.10;99.90;;;;;;5030903;28;20067;-77
2024/03/29 01:26:06;;;;;;;1.88;0.10;;;8.10;99.90;;;;;;5030239;28;20054;-79
2024/03/29 01:28:32;;;;;;;4.07;0.10;;;8.10;99.90;;;;;;5026155;28;20129;-77
2024/03/29 01:31:00;;;;;;;4.53;0.20;;;8.10;99.90;;;;;;5030750;28;20101;-79
2024/03/29 01:33:27;;;;;;;3.40;0.20;;;8.10;99.90;;;;;;5031063;28;20112;-79
2024/03/29 01:35:53;;;;;;;2.17;0.20;;;8.10;99.90;;;;;;5031233;28;20034;-79
2024/03/29 01:38:20;;;;;;;1.90;0.20;;;8.10;99.90;;;;;;5028608;28;20569;-78
2024/03/29 01:40:45;;;;;;;2.17;0.20;;;8.10;99.90;;;;;;5027178;28;20061;-78
2024/03/29 01:43:11;;;;;;;3.35;0.35;;;8.00;99.90;;;;;;5031292;28;20064;-77
2024/03/29 01:45:40;;;;;;;3.40;0.30;;;8.00;99.90;;;;;;5030707;28;20052;-77
2024/03/29 01:48:07;;;;;;;4.25;0.45;;;8.00;99.90;;;;;;5026106;28;20041;-77
2024/03/29 01:50:33;;;;;;;8.77;0.82;;;8.00;99.90;;;;;;5033246;28;20049;-77
2024/03/29 01:53:00;;;;;;;3.13;0.20;;;8.00;99.90;;;;;;5032782;28;20382;-77
2024/03/29 01:55:25;;;;;;;3.80;0.20;;;8.00;99.90;;;;;;5034711;28;20540;-77
2024/03/29 01:57:52;;;;;;;3.33;0.10;;;8.00;99.90;;;;;;5033101;28;20156;-77
2024/03/29 02:00:18;;;;;;;2.88;0.30;;;8.00;99.90;;;;;;5033929;28;20017;-79
2024/03/29 02:02:44;;;;;;;5.35;0.20;;;8.00;99.90;;;;;;5030972;28;20030;-79
2024/03/29 02:05:10;;;;;;;1.75;0.20;;;7.90;99.90;;;;;;5033820;28;20028;-79
2024/03/29 02:07:36;;;;;;;2.00;0.28;;;7.90;99.90;;;;;;5033865;28;20397;-79
2024/03/29 02:10:03;;;;;;;2.20;0.20;;;7.90;99.90;;;;;;5028421;28;20497;-80
2024/03/29 02:12:29;;;;;;;5.22;0.20;;;7.80;99.90;;;;;;5035644;28;20539;-78
2024/03/29 02:14:54;;;;;;;2.60;0.20;;;7.80;99.90;;;;;;5034867;28;20037;-79
2024/03/29 02:17:20;;;;;;;2.63;0.28;;;7.90;99.90;;;;;;5034939;28;20025;-79
2024/03/29 02:19:46;;;;;;;4.28;0.43;;;7.90;99.90;;;;;;5034146;28;20091;-80
2024/03/29 02:22:15;;;;;;;2.25;0.20;;;7.90;99.90;;;;;;5035452;28;20396;-79
2024/03/29 02:24:41;;;;;;;1.85;0.13;;;7.90;99.90;;;;;;5033752;28;20025;-79
2024/03/29 02:27:07;;;;;;;3.50;0.85;;;7.90;99.90;;;;;;5030348;28;20495;-77
2024/03/29 02:29:35;;;;;;;1.58;0.20;;;7.90;99.90;;;;;;5031372;28;20030;-79
2024/03/29 02:32:03;;;;;;;7.70;0.30;;;8.00;99.90;;;;;;5030633;28;20032;-79
2024/03/29 02:34:29;;;;;;;2.97;0.20;;;8.10;99.90;;;;;;5033116;28;20045;-79
2024/03/29 02:36:54;;;;;;;2.35;0.20;;;8.10;99.90;;;;;;5031899;28;20018;-78
2024/03/29 02:39:20;;;;;;;3.95;0.20;;;8.20;99.90;;;;;;5027441;28;20029;-78
2024/03/29 02:41:45;;;;;;;2.33;0.20;;;8.20;99.90;;;;;;5031425;28;20485;-78
2024/03/29 02:44:11;;;;;;;1.02;0.10;;;8.30;99.90;;;;;;5031781;28;20124;-78
2024/03/29 02:46:36;;;;;;;2.45;0.20;;;8.30;99.90;;;;;;5023365;28;20581;-79
2024/03/29 02:49:02;;;;;;;1.98;0.20;;;8.30;99.90;;;;;;5030724;28;20366;-78
2024/03/29 02:51:27;;;;;;;2.00;0.22;;;8.40;99.90;;;;;;5029674;28;20052;-78
2024/03/29 02:53:53;;;;;;;1.70;0.20;;;8.40;99.90;;;;;;5029714;28;20546;-78
2024/03/29 02:56:21;;;;;;;2.72;0.30;;;8.40;99.90;;;;;;5028997;28;20113;-79
2024/03/29 02:58:47;;;;;;;3.58;0.20;;;8.40;99.90;;;;;;5028763;28;20098;-78
2024/03/29 03:01:13;;;;;;;2.72;0.47;;;8.50;99.90;;;;;;5032254;28;20043;-79
2024/03/29 03:03:38;;;;;;;4.68;0.50;;;8.50;99.90;;;;;;5029357;28;20524;-78
2024/03/29 03:06:05;;;;;;;4.63;0.20;;;8.50;99.90;;;;;;5033367;28;20025;-78
2024/03/29 03:11:14;;;;;;;3.83;0.60;;;8.60;99.90;;;;;;5027888;28;20049;-78
2024/03/29 03:13:40;;;;;;;4.30;0.40;;;8.60;99.90;;;;;;5032217;28;20389;-77
2024/03/29 03:16:06;;;;;;;1.88;0.10;;;8.60;99.90;;;;;;5028719;28;20033;-77
2024/03/29 03:18:31;;;;;;;1.10;0.20;;;8.70;99.90;;;;;;5030694;28;20040;-77
2024/03/29 03:21:00;;;;;;;2.33;0.20;;;8.70;99.90;;;;;;5026585;28;20030;-77
2024/03/29 03:23:26;;;;;;;3.28;0.28;;;8.80;99.90;;;;;;5028343;28;20026;-77
2024/03/29 03:25:56;;;;;;;2.63;0.20;;;8.80;99.90;;;;;;5026340;28;20532;-77
2024/03/29 03:28:22;;;;;;;4.25;0.30;;;8.90;99.90;;;;;;5031583;28;20477;-76
2024/03/29 03:30:52;;;;;;;2.45;0.30;;;8.90;99.90;;;;;;5031144;28;20037;-76
2024/03/29 03:33:17;;;;;;;1.40;0.35;;;9.00;99.90;;;;;;5027217;28;20508;-78
2024/03/29 03:35:44;;;;;;;2.35;0.20;;;9.00;99.90;;;;;;5031217;28;20037;-78
2024/03/29 03:38:09;;;;;;;4.53;0.30;;;9.10;99.90;;;;;;5030292;28;20049;-78
2024/03/29 03:40:35;;;;;;;3.80;0.20;;;9.10;99.90;;;;;;5026738;28;20072;-79
2024/03/29 03:43:05;;;;;;;1.33;0.10;;;9.10;99.90;;;;;;5030671;28;20481;-78
2024/03/29 03:45:39;;;;;;;2.80;0.10;;;9.10;99.90;;;;;;5029581;28;20029;-79
2024/03/29 03:48:06;;;;;;;5.18;0.20;;;9.10;99.90;;;;;;5032395;28;20013;-80
2024/03/29 03:50:32;;;;;;;5.07;0.30;;;9.00;99.90;;;;;;5030625;28;20053;-79
2024/03/29 03:52:58;;;;;;;3.28;0.17;;;9.00;99.90;;;;;;5024858;28;20126;-79
2024/03/29 03:55:24;;;;;;;2.55;0.28;;;9.00;99.90;;;;;;5018225;28;20132;-78
2024/03/29 03:57:50;;;;;;;2.65;0.20;;;9.00;99.90;;;;;;5026340;28;20021;-78
2024/03/29 04:00:17;;;;;;;3.47;0.52;;;8.90;99.90;;;;;;5030430;28;20128;-78
2024/03/29 04:02:48;;;;;;;2.30;0.10;;;8.80;99.90;;;;;;5031170;28;20030;-79
2024/03/29 04:05:13;;;;;;;0.70;0.10;;;8.70;99.90;;;;;;5027884;28;20170;-79
2024/03/29 04:07:39;;;;;;;0.98;0.05;;;8.70;99.90;;;;;;5030997;28;20045;-79
2024/03/29 04:10:05;;;;;;;1.73;0.03;;;8.60;99.90;;;;;;5025132;28;20030;-82
2024/03/29 04:12:30;;;;;;;0.32;0.00;;;8.60;99.90;;;;;;5031843;28;20469;-84
2024/03/29 04:14:56;;;;;;;1.02;0.10;;;8.60;99.90;;;;;;5032528;28;20041;-84
2024/03/29 04:17:23;;;;;;;0.77;0.00;;;8.60;99.90;;;;;;5029327;28;20033;-83
2024/03/29 04:19:49;;;;;;;1.05;0.10;;;8.50;99.90;;;;;;5033191;28;20034;-84
2024/03/29 04:22:14;;;;;;;1.05;0.20;;;8.50;99.90;;;;;;5030272;28;20434;-84
2024/03/29 04:24:40;;;;;;;2.65;0.10;;;8.50;99.90;;;;;;5030955;28;20106;-84
2024/03/29 04:27:05;;;;;;;2.10;0.10;;;8.50;99.90;;;;;;5032387;28;20051;-82
2024/03/29 04:29:31;;;;;;;1.85;0.30;;;8.50;99.90;;;;;;5022767;28;20026;-82
2024/03/29 04:31:56;;;;;;;1.05;0.10;;;8.40;99.90;;;;;;5029051;28;20077;-82
2024/03/29 04:34:22;;;;;;;2.92;0.10;;;8.40;99.90;;;;;;5030427;28;20038;-81
2024/03/29 04:36:47;;;;;;;1.23;0.13;;;8.40;99.90;;;;;;5028150;28;20037;-82
2024/03/29 04:39:13;;;;;;;2.78;0.20;;;8.30;99.90;;;;;;5027120;28;20405;-83
2024/03/29 04:41:39;;;;;;;3.80;0.17;;;8.40;99.90;;;;;;5025783;28;20116;-83
2024/03/29 04:44:04;;;;;;;3.28;0.20;;;8.30;99.90;;;;;;5028058;28;20025;-83
2024/03/29 04:46:31;;;;;;;1.17;0.05;;;8.30;99.90;;;;;;5025437;28;20029;-83
2024/03/29 04:48:57;;;;;;;2.95;0.30;;;8.30;99.90;;;;;;5018089;28;20048;-82
2024/03/29 04:51:23;;;;;;;1.88;0.20;;;8.30;99.90;;;;;;5031982;28;20041;-83
2024/03/29 04:53:48;;;;;;;2.42;0.10;;;8.20;99.90;;;;;;5027959;28;20033;-82
2024/03/29 04:56:14;;;;;;;3.42;0.20;;;8.20;99.90;;;;;;5025266;28;20367;-81
2024/03/29 04:58:40;;;;;;;1.23;0.10;;;8.10;99.90;;;;;;5022064;28;20056;-82
2024/03/29 05:01:06;;;;;;;0.88;0.10;;;8.10;99.90;;;;;;5025660;28;20083;-82
2024/03/29 05:03:32;;;;;;;2.45;0.20;;;8.10;99.90;;;;;;5030285;28;20029;-82
2024/03/29 05:05:58;;;;;;;1.70;0.22;;;8.10;99.90;;;;;;5025570;28;20095;-82
2024/03/29 05:08:23;;;;;;;2.83;0.20;;;8.00;99.90;;;;;;5028095;28;20473;-82
2024/03/29 05:10:50;;;;;;;2.05;0.10;;;8.00;99.90;;;;;;5031298;28;20029;-82
2024/03/29 05:13:16;;;;;;;1.33;0.17;;;8.00;99.90;;;;;;5040173;28;20445;-82
2024/03/29 05:15:42;;;;;;;2.03;0.20;;;8.00;99.90;;;;;;5032868;28;20057;-83
2024/03/29 05:18:08;;;;;;;1.35;0.10;;;8.00;99.90;;;;;;5023473;28;20117;-82
2024/03/29 05:20:34;;;;;;;0.70;0.10;;;8.00;99.90;;;;;;5028603;28;20276;-82
2024/03/29 05:23:00;;;;;;;3.92;0.20;;;8.00;99.90;;;;;;5029287;28;20033;-82
2024/03/29 05:25:26;;;;;;;2.05;0.10;;;8.00;99.90;;;;;;5043886;28;20525;-83
2024/03/29 05:27:52;;;;;;;1.20;0.10;;;7.90;99.90;;;;;;5031722;28;20021;-83
2024/03/29 05:30:17;;;;;;;1.40;0.20;;;7.90;99.90;;;;;;5027786;28;20032;-82
2024/03/29 05:32:44;;;;;;;0.93;0.20;;;7.90;99.90;;;;;;5028244;28;20040;-82
2024/03/29 05:35:09;;;;;;;2.40;0.10;;;7.90;99.90;;;;;;5032241;28;20034;-82
2024/03/29 05:37:36;;;;;;;0.82;0.10;;;7.90;99.90;;;;;;5031394;28;20132;-82
2024/03/29 05:40:04;;;;;;;2.20;0.20;;;7.80;99.90;;;;;;5027544;28;20108;-82
2024/03/29 05:42:32;;;;;;;1.02;0.10;;;7.80;99.90;;;;;;5028386;28;20042;-82
2024/03/29 05:44:58;;;;;;;2.08;0.17;;;7.80;99.90;;;;;;5028712;28;20041;-82
2024/03/29 05:47:23;;;;;;;1.15;0.10;;;7.80;99.90;;;;;;5025793;28;20025;-82
2024/03/29 05:49:50;;;;;;;2.60;0.45;;;7.80;99.90;;;;;;5028765;28;20045;-81
2024/03/29 05:52:16;;;;;;;4.28;0.60;;;7.80;99.90;;;;;;5032000;28;20071;-82
2024/03/29 05:54:43;;;;;;;1.40;0.20;;;7.80;99.90;;;;;;5027141;28;20029;-82
2024/03/29 05:57:08;;;;;;;1.65;0.20;;;7.70;99.90;;;;;;5021685;28;20378;-82
2024/03/29 05:59:35;;;;;;;2.88;0.20;;;7.80;99.90;;;;;;5017426;28;20026;-83
2024/03/29 06:02:01;;;;;;;2.05;0.20;;;7.80;99.90;;;;;;5030858;28;20029;-82
2024/03/29 06:04:32;;;;;;;3.78;0.10;;;7.80;99.90;;;;;;5022866;28;20041;-81
2024/03/29 06:06:58;;;;;;;0.80;0.10;;;7.70;99.90;;;;;;5031468;28;20112;-81
2024/03/29 06:09:24;;;;;;;4.82;0.20;;;7.70;99.90;;;;;;5027449;28;20030;-81
2024/03/29 06:11:56;;;;;;;0.88;0.10;;;7.70;99.90;;;;;;5016598;28;20116;-80
2024/03/29 06:17:24;;;;;;;0.77;0.20;;;7.70;99.90;;;;;;5031260;28;19915;-80
2024/03/29 06:19:51;;;;;;;1.92;0.10;;;7.70;99.90;;;;;;5019995;28;20042;-80
2024/03/29 06:22:17;;;;;;;1.60;0.15;;;7.70;99.90;;;;;;5026247;28;20033;-80
2024/03/29 06:24:44;;;;;;;1.77;0.20;;;7.80;99.90;;;;;;5021966;28;20026;-80
2024/03/29 06:27:10;;;;;;;2.90;0.20;;;7.80;99.90;;;;;;5018136;28;20030;-80
2024/03/29 06:29:35;;;;;;;3.47;0.22;;;7.80;99.90;;;;;;5022776;28;20056;-80
2024/03/29 06:32:02;;;;;;;2.35;0.20;;;7.80;99.90;;;;;;5028846;28;20474;-79
2024/03/29 06:34:31;;;;;;;1.35;0.20;;;7.80;99.90;;;;;;5024691;28;20041;-80
2024/03/29 06:36:57;;;;;;;1.75;0.17;;;7.80;99.90;;;;;;5023848;28;20061;-80
2024/03/29 06:39:22;;;;;;;5.55;0.40;;;7.80;99.90;;;;;;5030777;28;20057;-80
2024/03/29 06:41:48;;;;;;;1.45;0.20;;;7.80;99.90;;;;;;5028070;28;20096;-80
2024/03/29 06:44:13;;;;;;;1.73;0.20;;;7.70;99.90;;;;;;5027612;28;20021;-79
2024/03/29 06:46:39;;;;;;;2.60;0.30;;;7.70;99.90;;;;;;5031543;28;20087;-79
2024/03/29 06:49:05;;;;;;;1.70;0.20;;;7.70;99.90;;;;;;5026981;28;20030;-79
2024/03/29 06:51:30;;;;;;;1.23;0.30;;;7.80;99.90;;;;;;5025849;28;20509;-79
2024/03/29 06:53:56;;;;;;;1.42;0.20;;;7.70;99.90;;;;;;5031488;28;20067;-78
2024/03/29 06:56:22;;;;;;;5.15;0.30;;;7.80;99.90;;;;;;5034317;28;20021;-78
2024/03/29 06:58:47;;;;;;;3.08;0.20;;;7.80;99.90;;;;;;5029285;28;20029;-78
2024/03/29 07:01:13;;;;;;;1.45;0.20;;;7.90;99.90;;;;;;5028932;28;20037;-81
2024/03/29 07:03:39;;;;;;;2.50;0.50;;;7.90;99.90;;;;;;5029602;28;20022;-79
2024/03/29 07:06:05;;;;;;;0.88;0.20;;;7.90;99.90;;;;;;5026189;28;20096;-79
2024/03/29 07:08:30;;;;;;;3.88;0.20;;;7.90;99.90;;;;;;5028260;28;20470;-79
2024/03/29 07:11:00;;;;;;;1.13;0.20;;;7.90;99.90;;;;;;5016881;28;20064;-80
2024/03/29 07:13:27;;;;;;;1.55;0.20;;;7.90;99.90;;;;;;5021243;28;20502;-80
2024/03/29 07:15:53;;;;;;;2.53;0.20;;;7.90;99.90;;;;;;5030711;28;20069;-78
2024/03/29 07:18:18;;;;;;;2.63;0.40;;;8.00;99.90;;;;;;5027687;28;20058;-79
2024/03/29 07:20:50;;;;;;;1.52;0.38;;;8.00;99.90;;;;;;5034946;28;20033;-80
2024/03/29 07:23:22;;;;;;;1.80;0.30;;;8.00;99.90;;;;;;5031602;28;20397;-80
2024/03/29 07:26:08;;;;;;;2.90;0.30;;;8.00;99.90;;;;;;5040192;28;20034;-79
2024/03/29 07:28:33;;;;;;;1.48;0.30;;;8.00;99.90;;;;;;5030453;28;20060;-80
2024/03/29 07:31:12;;;;;;;5.18;0.63;;;8.00;99.90;;;;;;5027652;28;20029;-79
2024/03/29 07:33:37;;;;;;;3.38;0.25;;;8.10;99.90;;;;;;5025033;28;20034;-79
2024/03/29 07:36:04;;;;;;;0.85;0.25;;;8.30;99.90;;;;;;5031491;28;20044;-80
2024/03/29 07:38:30;;;;;;;1.05;0.20;;;8.30;99.90;;;;;;5030375;28;20052;-81
2024/03/29 07:40:56;;;;;;;2.58;0.30;;;8.30;99.90;;;;;;5026019;28;20083;-81
2024/03/29 07:43:22;;;;;;;1.73;0.30;;;8.40;99.90;;;;;;5033668;28;20800;-81
2024/03/29 07:45:48;;;;;;;2.83;0.30;;;8.40;99.90;;;;;;5031185;28;20033;-81
2024/03/29 07:48:16;;;;;;;1.83;0.20;;;8.40;99.90;;;;;;5022379;28;20034;-80
2024/03/29 07:50:42;;;;;;;1.30;0.38;;;8.40;99.90;;;;;;5017137;28;20104;-81
2024/03/29 07:53:08;;;;;;;1.63;0.30;;;8.40;99.90;;;;;;5022454;28;20044;-80
2024/03/29 07:55:43;;;;;;;1.50;0.40;;;8.40;99.90;;;;;;5031127;28;20046;-81
2024/03/29 07:58:10;;;;;;;1.95;0.30;;;8.40;99.90;;;;;;5026025;28;20524;-80
2024/03/29 08:00:41;;;;;;;4.00;0.40;;;8.40;99.90;;;;;;5022835;28;20263;-80
2024/03/29 08:03:06;;;;;;;2.00;0.30;;;8.40;99.90;;;;;;5018263;28;20025;-80
2024/03/29 08:05:33;;;;;;;2.40;0.52;;;8.40;99.90;;;;;;5027218;28;20026;-81
2024/03/29 08:07:59;;;;;;;2.30;0.40;;;8.40;99.90;;;;;;5023283;28;20147;-81
2024/03/29 08:10:25;;;;;;;1.50;0.40;;;8.40;99.90;;;;;;5029585;28;20100;-81
2024/03/29 08:12:50;;;;;;;1.85;0.50;;;8.40;99.90;;;;;;5016644;28;20037;-81
2024/03/29 08:15:18;;;;;;;5.65;0.77;;;8.40;99.90;;;;;;5024154;28;20045;-81
2024/03/29 08:17:44;;;;;;;1.60;0.30;;;8.40;99.90;;;;;;5023427;28;20058;-80
2024/03/29 08:20:10;;;;;;;4.40;0.30;;;8.40;99.90;;;;;;5022480;28;20025;-81
2024/03/29 08:22:36;;;;;;;1.95;0.30;;;8.40;99.90;;;;;;5033005;28;20104;-81
2024/03/29 08:25:01;;;;;;;2.78;0.30;;;8.40;99.90;;;;;;5029797;28;20079;-81
2024/03/29 08:27:27;;;;;;;2.80;0.40;;;8.40;99.90;;;;;;5027237;28;20112;-81
2024/03/29 08:29:53;;;;;;;3.67;0.90;;;8.50;99.90;;;;;;5024718;28;20456;-81
2024/03/29 08:32:19;;;;;;;4.53;0.40;;;8.60;99.90;;;;;;5014897;28;20117;-81
2024/03/29 08:34:45;;;;;;;2.05;0.30;;;8.70;99.90;;;;;;5024625;28;20033;-83
2024/03/29 08:37:10;;;;;;;3.00;0.38;;;8.80;99.90;;;;;;5024058;28;20487;-82
2024/03/29 08:39:37;;;;;;;3.72;0.35;;;9.00;99.90;;;;;;5028521;28;20096;-82
2024/03/29 08:42:05;;;;;;;2.53;0.40;;;9.20;99.90;;;;;;5029161;28;20075;-80
2024/03/29 08:44:35;;;;;;;3.78;0.70;;;9.50;99.90;;;;;;5033118;28;20083;-82
2024/03/29 08:47:01;;;;;;;2.40;0.50;;;9.70;99.90;;;;;;5027107;28;20381;-82
2024/03/29 08:49:27;;;;;;;1.70;0.40;;;9.90;99.90;;;;;;5031223;28;20025;-81
2024/03/29 08:51:53;;;;;;;2.33;0.38;;;10.10;99.90;;;;;;5034100;28;20033;-82
2024/03/29 08:54:19;;;;;;;1.42;0.30;;;10.30;99.90;;;;;;5027654;28;20524;-82
2024/03/29 08:56:44;;;;;;;4.68;0.52;;;10.50;99.90;;;;;;5033750;28;20029;-83
2024/03/29 08:59:11;;;;;;;1.15;0.20;;;10.70;99.90;;;;;;5032451;28;20542;-82
2024/03/29 09:01:39;;;;;;;1.40;0.40;;;10.70;99.90;;;;;;5025381;28;20529;-83
2024/03/29 09:04:06;;;;;;;1.55;0.40;;;10.70;99.90;;;;;;5023402;28;20072;-83
2024/03/29 09:06:33;;;;;;;1.70;0.30;;;10.70;99.90;;;;;;5027326;28;20013;-82
2024/03/29 09:08:58;;;;;;;2.47;0.30;;;10.70;99.90;;;;;;5027173;28;20029;-82
2024/03/29 09:11:24;;;;;;;1.52;0.30;;;10.60;99.90;;;;;;5034048;28;20036;-83
2024/03/29 09:13:50;;;;;;;1.27;0.35;;;10.60;99.90;;;;;;5017840;28;20071;-83
2024/03/29 09:16:15;;;;;;;2.42;0.30;;;10.50;99.90;;;;;;5025886;28;20113;-83
2024/03/29 09:18:41;;;;;;;2.45;0.40;;;10.60;99.90;;;;;;5018454;28;20444;-83
2024/03/29 09:21:08;;;;;;;1.10;0.30;;;10.60;99.90;;;;;;5041758;28;20029;-83
2024/03/29 09:23:34;;;;;;;1.38;0.20;;;10.70;99.90;;;;;;5025339;28;20454;-83
2024/03/29 09:26:04;;;;;;;2.22;0.35;;;10.80;99.90;;;;;;5029249;28;20038;-83
2024/03/29 09:28:31;;;;;;;0.70;0.30;;;10.80;99.90;;;;;;5024896;28;20025;-82
2024/03/29 09:31:00;;;;;;;1.58;0.30;;;10.80;99.90;;;;;;5025734;28;20033;-82
2024/03/29 09:33:26;;;;;;;2.50;0.40;;;10.80;99.90;;;;;;5018377;28;20120;-82
2024/03/29 09:35:53;;;;;;;2.38;0.30;;;10.90;99.90;;;;;;5022809;28;20112;-82
2024/03/29 09:38:19;;;;;;;2.60;0.80;;;11.00;99.90;;;;;;5018622;28;20037;-82
2024/03/29 09:40:46;;;;;;;3.42;0.60;;;11.10;99.90;;;;;;5027216;28;20485;-82
2024/03/29 09:43:14;;;;;;;3.63;0.43;;;11.20;99.90;;;;;;5030382;28;20040;-81
2024/03/29 09:45:40;;;;;;;1.60;0.40;;;11.30;99.90;;;;;;5027541;28;20026;-81
2024/03/29 09:48:08;;;;;;;3.53;0.40;;;11.40;99.90;;;;;;5031193;28;20025;-82
2024/03/29 09:50:35;;;;;;;2.25;0.45;;;11.60;99.90;;;;;;5028986;28;20508;-83
2024/03/29 09:53:02;;;;;;;3.58;0.40;;;11.80;99.90;;;;;;5031046;28;20030;-82
2024/03/29 09:55:28;;;;;;;2.88;0.35;;;11.90;99.90;;;;;;5031536;28;20048;-82
2024/03/29 09:57:54;;;;;;;1.60;0.32;;;12.00;99.90;;;;;;5024498;28;20060;-83
2024/03/29 10:00:20;;;;;;;1.45;0.40;;;12.20;99.90;;;;;;5027124;28;20064;-82
2024/03/29 10:02:49;;;;;;;2.90;0.82;;;12.30;99.90;;;;;;5030212;28;20072;-83
2024/03/29 10:05:15;;;;;;;1.83;0.45;;;12.50;99.90;;;;;;5029031;28;20037;-80
2024/03/29 10:07:42;;;;;;;2.30;0.50;;;12.60;99.90;;;;;;5024989;28;20473;-79
2024/03/29 10:10:10;;;;;;;1.30;0.32;;;12.70;99.90;;;;;;5030978;28;20037;-88
2024/03/29 10:12:36;;;;;;;0.90;0.38;;;12.70;99.90;;;;;;5026378;28;20061;-81
2024/03/29 10:15:12;;;;;;;1.80;0.60;;;12.80;99.90;;;;;;5029805;28;20037;-79
2024/03/29 10:17:38;;;;;;;1.50;0.30;;;12.80;99.90;;;;;;5026617;28;20046;-81
2024/03/29 10:20:04;;;;;;;1.65;0.40;;;12.90;99.90;;;;;;5016294;28;20397;-80
2024/03/29 10:22:36;;;;;;;2.53;0.40;;;12.90;99.90;;;;;;5018542;28;20014;-80
2024/03/29 10:25:01;;;;;;;6.63;0.95;;;12.90;99.90;;;;;;5017680;28;20029;-81
2024/03/29 10:27:28;;;;;;;2.00;0.40;;;12.90;99.90;;;;;;5026420;28;20037;-79
2024/03/29 10:29:54;;;;;;;1.67;0.50;;;12.90;99.90;;;;;;5019491;28;20029;-80
2024/03/29 10:32:19;;;;;;;2.47;0.40;;;12.90;99.90;;;;;;5026767;28;20371;-81
2024/03/29 10:34:45;;;;;;;4.60;0.52;;;12.90;99.90;;;;;;5024951;28;20196;-80
2024/03/29 10:37:12;;;;;;;1.80;0.50;;;12.90;99.90;;;;;;5029490;28;20374;-80
2024/03/29 10:39:42;;;;;;;2.63;0.50;;;12.80;99.90;;;;;;5018598;28;20021;-80
2024/03/29 10:42:11;;;;;;;4.45;0.73;;;12.70;99.90;;;;;;5018571;28;20033;-80
2024/03/29 10:44:39;;;;;;;2.40;0.52;;;12.70;99.90;;;;;;5033751;28;20037;-80
2024/03/29 10:47:06;;;;;;;1.38;0.40;;;12.60;99.90;;;;;;5023017;28;20079;-82
2024/03/29 10:49:33;;;;;;;3.55;0.50;;;12.70;99.90;;;;;;5031035;28;20029;-80
2024/03/29 10:51:59;;;;;;;3.53;0.40;;;12.80;99.90;;;;;;5026618;28;20660;-82
2024/03/29 10:54:25;;;;;;;3.05;0.50;;;12.90;99.90;;;;;;5028629;28;20065;-81
2024/03/29 10:57:08;;;;;;;2.42;0.50;;;13.00;99.90;;;;;;5014379;28;20064;-81
2024/03/29 11:00:05;;;;;;;1.92;0.50;;;13.10;99.90;;;;;;5032495;28;20120;-81
2024/03/29 11:02:39;;;;;;;1.98;0.43;;;13.30;99.90;;;;;;5028225;28;20033;-81
2024/03/29 11:05:10;;;;;;;1.42;0.45;;;13.50;99.90;;;;;;5019450;28;20029;-81
2024/03/29 11:07:41;;;;;;;3.83;0.40;;;13.70;99.90;;;;;;5023061;28;20026;-82
2024/03/29 11:10:10;;;;;;;4.32;0.50;;;13.80;99.90;;;;;;5015701;28;20088;-81
2024/03/29 11:12:53;;;;;;;1.80;0.38;;;14.10;99.90;;;;;;5040537;28;20080;-83
2024/03/29 11:15:30;;;;;;;1.55;0.25;;;14.30;99.90;;;;;;5021846;28;20119;-81
2024/03/29 11:17:56;;;;;;;1.80;0.30;;;14.50;99.90;;;;;;5019423;28;20029;-81
2024/03/29 11:20:34;;;;;;;1.70;0.30;;;14.60;99.90;;;;;;5027422;28;20037;-82
2024/03/29 11:23:09;;;;;;;3.80;0.43;;;14.60;99.90;;;;;;5027702;28;20037;-81
2024/03/29 11:25:44;;;;;;;2.63;0.30;;;14.70;99.90;;;;;;5023039;28;20033;-81
2024/03/29 11:28:21;;;;;;;1.75;0.30;;;14.90;99.90;;;;;;5023766;28;20022;-80
2024/03/29 11:30:49;;;;;;;1.23;0.20;;;15.00;99.90;;;;;;5021990;28;20448;-79
2024/03/29 11:33:29;;;;;;;0.75;0.20;;;14.90;99.90;;;;;;5031181;28;20378;-80
2024/03/29 11:35:54;;;;;;;2.25;0.32;;;14.90;99.90;;;;;;5030722;28;20047;-81
2024/03/29 11:38:28;;;;;;;1.73;0.30;;;14.90;99.90;;;;;;5023778;28;20026;-81
2024/03/29 11:41:09;;;;;;;2.67;0.30;;;14.80;99.90;;;;;;5026567;28;20403;-82
2024/03/29 11:43:37;;;;;;;1.10;0.20;;;14.80;99.90;;;;;;5026017;28;20091;-81
2024/03/29 11:46:08;;;;;;;1.67;0.20;;;14.80;99.90;;;;;;5030760;28;20029;-81
2024/03/29 11:48:35;;;;;;;1.35;0.20;;;14.80;99.90;;;;;;5030453;28;20030;-81
2024/03/29 11:51:08;;;;;;;1.00;0.20;;;14.80;99.90;;;;;;5032119;28;20046;-81
2024/03/29 11:54:00;;;;;;;0.57;0.20;;;14.90;99.90;;;;;;5031400;28;20025;-84
2024/03/29 11:56:26;;;;;;;0.82;0.20;;;15.00;99.90;;;;;;5026670;28;20133;-80
2024/03/29 11:58:53;;;;;;;3.00;0.20;;;14.90;99.90;;;;;;5030706;28;20065;-82
2024/03/29 12:01:18;;;;;;;0.75;0.20;;;15.00;99.90;;;;;;5032470;28;20029;-81
2024/03/29 12:03:44;;;;;;;2.55;0.30;;;15.00;99.90;;;;;;5023398;28;20038;-81
2024/03/29 12:06:10;;;;;;;0.98;0.25;;;15.10;99.90;;;;;;5022896;28;20022;-81
2024/03/29 12:08:39;;;;;;;0.40;0.20;;;15.20;99.90;;;;;;5026947;28;20034;-81
2024/03/29 12:11:05;;;;;;;0.63;0.20;;;15.20;99.90;;;;;;5028271;28;20045;-81
2024/03/29 12:13:31;;;;;;;2.17;0.30;;;15.30;99.90;;;;;;5019194;28;20135;-81
2024/03/29 12:15:58;;;;;;;0.50;0.20;;;15.40;99.90;;;;;;5031494;28;20041;-82
2024/03/29 12:18:25;;;;;;;0.95;0.20;;;15.40;99.90;;;;;;5015284;28;20508;-82
2024/03/29 12:20:52;;;;;;;1.15;0.20;;;15.40;99.90;;;;;;5023994;28;20068;-81
2024/03/29 12:23:19;;;;;;;2.03;0.20;;;15.40;99.90;;;;;;5029143;28;20037;-82
2024/03/29 12:25:46;;;;;;;2.85;0.20;;;15.50;99.90;;;;;;5026203;28;20032;-81
2024/03/29 12:28:14;;;;;;;0.40;0.10;;;15.60;99.90;;;;;;5029308;28;20965;-82
2024/03/29 12:30:44;;;;;;;1.42;0.20;;;15.70;99.90;;;;;;5026315;28;20029;-81
2024/03/29 12:33:21;;;;;;;0.77;0.13;;;15.90;99.90;;;;;;5030714;28;20057;-80
2024/03/29 12:35:49;;;;;;;0.98;0.20;;;16.10;99.90;;;;;;5020647;28;20060;-81
2024/03/29 12:38:19;;;;;;;1.65;0.10;;;16.40;99.90;;;;;;5028745;28;20025;-81
2024/03/29 12:40:49;;;;;;;2.10;0.10;;;16.60;99.90;;;;;;5030839;28;20162;-80
2024/03/29 12:43:19;;;;;;;0.40;0.10;;;16.60;99.90;;;;;;5025699;28;20060;-80
2024/03/29 12:45:46;;;;;;;2.30;0.20;;;16.50;99.90;;;;;;5021008;28;20026;-80
2024/03/29 12:48:13;;;;;;;1.15;0.20;;;16.40;99.90;;;;;;5030692;28;20030;-80
2024/03/29 12:50:41;;;;;;;0.90;0.13;;;16.30;99.90;;;;;;5019366;28;20053;-81
2024/03/29 12:53:08;;;;;;;0.40;0.10;;;16.20;99.90;;;;;;5027325;28;20375;-80
2024/03/29 12:55:35;;;;;;;0.38;0.10;;;16.00;99.90;;;;;;5030648;28;20042;-81
2024/03/29 12:58:04;;;;;;;0.40;0.10;;;16.00;99.90;;;;;;5031182;28;20496;-81